sensor_id;sensor_type;location;lat;lon;timestamp;P1;durP1;ratioP1;P2;durP2;ratioP2
55465;SDS011;41329;41.594;23.810;2024-02-23T00:02:23;26.77;;;21.00;;
55465;SDS011;41329;41.594;23.810;2024-02-23T00:04:49;22.00;;;19.90;;
55465;SDS011;41329;41.594;23.810;2024-02-23T00:07:15;24.00;;;20.10;;
55465;SDS011;41329;41.594;23.810;2024-02-23T00:09:40;22.20;;;20.10;;
55465;SDS011;41329;41.594;23.810;2024-02-23T00:12:06;21.33;;;19.30;;
55465;SDS011;41329;41.594;23.810;2024-02-23T00:14:33;21.03;;;18.90;;
55465;SDS011;41329;41.594;23.810;2024-02-23T00:17:01;20.27;;;18.27;;
55465;SDS011;41329;41.594;23.810;2024-02-23T00:19:27;20.77;;;18.93;;
55465;SDS011;41329;41.594;23.810;2024-02-23T00:21:52;19.70;;;18.10;;
55465;SDS011;41329;41.594;23.810;2024-02-23T00:24:18;20.50;;;18.50;;
55465;SDS011;41329;41.594;23.810;2024-02-23T00:26:45;18.60;;;16.80;;
55465;SDS011;41329;41.594;23.810;2024-02-23T00:29:11;18.90;;;17.23;;
55465;SDS011;41329;41.594;23.810;2024-02-23T00:31:40;20.70;;;18.53;;
55465;SDS011;41329;41.594;23.810;2024-02-23T00:34:10;20.23;;;18.10;;
55465;SDS011;41329;41.594;23.810;2024-02-23T00:36:41;19.63;;;17.93;;
55465;SDS011;41329;41.594;23.810;2024-02-23T00:39:08;18.60;;;17.03;;
55465;SDS011;41329;41.594;23.810;2024-02-23T00:41:34;18.47;;;16.77;;
55465;SDS011;41329;41.594;23.810;2024-02-23T00:44:00;19.67;;;17.73;;
55465;SDS011;41329;41.594;23.810;2024-02-23T00:46:25;19.83;;;18.20;;
55465;SDS011;41329;41.594;23.810;2024-02-23T00:48:51;19.57;;;17.87;;
55465;SDS011;41329;41.594;23.810;2024-02-23T00:51:16;20.87;;;18.87;;
55465;SDS011;41329;41.594;23.810;2024-02-23T00:53:42;22.03;;;19.87;;
55465;SDS011;41329;41.594;23.810;2024-02-23T00:56:07;21.50;;;19.60;;
55465;SDS011;41329;41.594;23.810;2024-02-23T00:58:33;22.73;;;20.23;;
55465;SDS011;41329;41.594;23.810;2024-02-23T01:00:59;22.73;;;20.43;;
55465;SDS011;41329;41.594;23.810;2024-02-23T01:03:24;23.37;;;20.43;;
55465;SDS011;41329;41.594;23.810;2024-02-23T01:05:50;22.63;;;20.23;;
55465;SDS011;41329;41.594;23.810;2024-02-23T01:08:15;22.77;;;20.47;;
55465;SDS011;41329;41.594;23.810;2024-02-23T01:10:41;23.40;;;20.90;;
55465;SDS011;41329;41.594;23.810;2024-02-23T01:13:06;23.60;;;20.63;;
55465;SDS011;41329;41.594;23.810;2024-02-23T01:15:32;21.57;;;19.63;;
55465;SDS011;41329;41.594;23.810;2024-02-23T01:17:57;21.30;;;19.10;;
55465;SDS011;41329;41.594;23.810;2024-02-23T01:20:22;20.97;;;18.87;;
55465;SDS011;41329;41.594;23.810;2024-02-23T01:22:48;20.27;;;18.20;;
55465;SDS011;41329;41.594;23.810;2024-02-23T01:25:13;20.43;;;18.63;;
55465;SDS011;41329;41.594;23.810;2024-02-23T01:27:40;20.53;;;18.20;;
55465;SDS011;41329;41.594;23.810;2024-02-23T01:30:06;18.67;;;17.03;;
55465;SDS011;41329;41.594;23.810;2024-02-23T01:32:32;19.17;;;17.67;;
55465;SDS011;41329;41.594;23.810;2024-02-23T01:34:57;19.57;;;17.73;;
55465;SDS011;41329;41.594;23.810;2024-02-23T01:37:23;18.53;;;17.00;;
55465;SDS011;41329;41.594;23.810;2024-02-23T01:39:48;18.73;;;17.20;;
55465;SDS011;41329;41.594;23.810;2024-02-23T01:42:14;19.33;;;17.37;;
55465;SDS011;41329;41.594;23.810;2024-02-23T01:44:39;20.10;;;18.10;;
55465;SDS011;41329;41.594;23.810;2024-02-23T01:47:04;20.70;;;18.70;;
55465;SDS011;41329;41.594;23.810;2024-02-23T01:49:30;19.17;;;17.43;;
55465;SDS011;41329;41.594;23.810;2024-02-23T01:51:58;19.07;;;17.23;;
55465;SDS011;41329;41.594;23.810;2024-02-23T01:54:24;18.37;;;16.87;;
55465;SDS011;41329;41.594;23.810;2024-02-23T01:56:51;17.33;;;15.97;;
55465;SDS011;41329;41.594;23.810;2024-02-23T01:59:16;17.70;;;16.13;;
55465;SDS011;41329;41.594;23.810;2024-02-23T02:01:45;17.40;;;15.83;;
55465;SDS011;41329;41.594;23.810;2024-02-23T02:04:11;18.00;;;16.37;;
55465;SDS011;41329;41.594;23.810;2024-02-23T02:06:36;17.33;;;15.83;;
55465;SDS011;41329;41.594;23.810;2024-02-23T02:09:02;17.80;;;16.20;;
55465;SDS011;41329;41.594;23.810;2024-02-23T02:11:27;17.57;;;16.17;;
55465;SDS011;41329;41.594;23.810;2024-02-23T02:13:53;18.47;;;16.70;;
55465;SDS011;41329;41.594;23.810;2024-02-23T02:16:18;15.87;;;14.77;;
55465;SDS011;41329;41.594;23.810;2024-02-23T02:18:44;15.67;;;14.60;;
55465;SDS011;41329;41.594;23.810;2024-02-23T02:21:12;16.83;;;15.50;;
55465;SDS011;41329;41.594;23.810;2024-02-23T02:23:38;16.07;;;14.87;;
55465;SDS011;41329;41.594;23.810;2024-02-23T02:26:04;17.00;;;15.47;;
55465;SDS011;41329;41.594;23.810;2024-02-23T02:28:29;16.40;;;15.20;;
55465;SDS011;41329;41.594;23.810;2024-02-23T02:30:55;14.93;;;13.80;;
55465;SDS011;41329;41.594;23.810;2024-02-23T02:33:21;17.00;;;15.63;;
55465;SDS011;41329;41.594;23.810;2024-02-23T02:35:47;15.83;;;14.63;;
55465;SDS011;41329;41.594;23.810;2024-02-23T02:38:12;17.17;;;15.73;;
55465;SDS011;41329;41.594;23.810;2024-02-23T02:40:38;15.77;;;14.70;;
55465;SDS011;41329;41.594;23.810;2024-02-23T02:43:04;15.90;;;14.60;;
55465;SDS011;41329;41.594;23.810;2024-02-23T02:45:30;16.30;;;14.93;;
55465;SDS011;41329;41.594;23.810;2024-02-23T02:47:56;15.80;;;14.57;;
55465;SDS011;41329;41.594;23.810;2024-02-23T02:50:21;16.67;;;15.47;;
55465;SDS011;41329;41.594;23.810;2024-02-23T02:52:47;16.87;;;15.20;;
55465;SDS011;41329;41.594;23.810;2024-02-23T02:55:12;15.80;;;14.00;;
55465;SDS011;41329;41.594;23.810;2024-02-23T02:57:38;15.90;;;14.70;;
55465;SDS011;41329;41.594;23.810;2024-02-23T03:00:04;16.20;;;15.03;;
55465;SDS011;41329;41.594;23.810;2024-02-23T03:02:33;15.53;;;14.43;;
55465;SDS011;41329;41.594;23.810;2024-02-23T03:04:58;15.97;;;14.67;;
55465;SDS011;41329;41.594;23.810;2024-02-23T03:07:24;16.10;;;14.90;;
55465;SDS011;41329;41.594;23.810;2024-02-23T03:09:49;16.40;;;15.20;;
55465;SDS011;41329;41.594;23.810;2024-02-23T03:12:16;16.00;;;14.83;;
55465;SDS011;41329;41.594;23.810;2024-02-23T03:14:42;14.60;;;13.47;;
55465;SDS011;41329;41.594;23.810;2024-02-23T03:17:08;17.10;;;15.70;;
55465;SDS011;41329;41.594;23.810;2024-02-23T03:19:37;16.33;;;14.93;;
55465;SDS011;41329;41.594;23.810;2024-02-23T03:22:03;16.20;;;15.10;;
55465;SDS011;41329;41.594;23.810;2024-02-23T03:24:29;16.83;;;15.10;;
55465;SDS011;41329;41.594;23.810;2024-02-23T03:26:54;16.20;;;15.00;;
55465;SDS011;41329;41.594;23.810;2024-02-23T03:29:20;15.00;;;13.90;;
55465;SDS011;41329;41.594;23.810;2024-02-23T03:31:49;17.00;;;15.80;;
55465;SDS011;41329;41.594;23.810;2024-02-23T03:34:15;18.17;;;16.67;;
55465;SDS011;41329;41.594;23.810;2024-02-23T03:36:40;17.47;;;15.97;;
55465;SDS011;41329;41.594;23.810;2024-02-23T03:39:05;16.20;;;15.03;;
55465;SDS011;41329;41.594;23.810;2024-02-23T03:41:31;17.60;;;16.27;;
55465;SDS011;41329;41.594;23.810;2024-02-23T03:43:56;17.33;;;15.87;;
55465;SDS011;41329;41.594;23.810;2024-02-23T03:46:21;17.87;;;16.37;;
55465;SDS011;41329;41.594;23.810;2024-02-23T03:48:47;16.13;;;15.10;;
55465;SDS011;41329;41.594;23.810;2024-02-23T03:51:12;15.80;;;14.70;;
55465;SDS011;41329;41.594;23.810;2024-02-23T03:53:38;14.67;;;13.57;;
55465;SDS011;41329;41.594;23.810;2024-02-23T03:56:03;14.73;;;13.73;;
55465;SDS011;41329;41.594;23.810;2024-02-23T03:58:29;15.50;;;14.43;;
55465;SDS011;41329;41.594;23.810;2024-02-23T04:00:54;17.90;;;16.33;;
55465;SDS011;41329;41.594;23.810;2024-02-23T04:03:20;17.47;;;16.00;;
55465;SDS011;41329;41.594;23.810;2024-02-23T04:05:45;28.20;;;21.70;;
55465;SDS011;41329;41.594;23.810;2024-02-23T04:08:11;26.10;;;22.30;;
55465;SDS011;41329;41.594;23.810;2024-02-23T04:10:36;33.33;;;24.87;;
55465;SDS011;41329;41.594;23.810;2024-02-23T04:13:02;30.73;;;23.63;;
55465;SDS011;41329;41.594;23.810;2024-02-23T04:15:27;31.63;;;22.17;;
55465;SDS011;41329;41.594;23.810;2024-02-23T04:17:53;33.47;;;24.30;;
55465;SDS011;41329;41.594;23.810;2024-02-23T04:20:18;34.87;;;23.87;;
55465;SDS011;41329;41.594;23.810;2024-02-23T04:22:44;24.57;;;21.93;;
55465;SDS011;41329;41.594;23.810;2024-02-23T04:25:09;27.13;;;21.43;;
55465;SDS011;41329;41.594;23.810;2024-02-23T04:27:35;25.90;;;21.40;;
55465;SDS011;41329;41.594;23.810;2024-02-23T04:30:00;25.97;;;22.87;;
55465;SDS011;41329;41.594;23.810;2024-02-23T04:32:26;24.20;;;21.73;;
55465;SDS011;41329;41.594;23.810;2024-02-23T04:34:52;21.57;;;19.30;;
55465;SDS011;41329;41.594;23.810;2024-02-23T04:37:17;17.53;;;16.03;;
55465;SDS011;41329;41.594;23.810;2024-02-23T04:39:45;16.77;;;15.57;;
55465;SDS011;41329;41.594;23.810;2024-02-23T04:42:11;14.93;;;13.93;;
55465;SDS011;41329;41.594;23.810;2024-02-23T04:44:37;17.43;;;15.60;;
55465;SDS011;41329;41.594;23.810;2024-02-23T04:47:02;16.57;;;15.20;;
55465;SDS011;41329;41.594;23.810;2024-02-23T04:49:28;15.30;;;14.10;;
55465;SDS011;41329;41.594;23.810;2024-02-23T04:51:53;14.93;;;13.70;;
55465;SDS011;41329;41.594;23.810;2024-02-23T04:54:19;15.60;;;14.30;;
55465;SDS011;41329;41.594;23.810;2024-02-23T04:56:45;16.77;;;15.57;;
55465;SDS011;41329;41.594;23.810;2024-02-23T04:59:10;17.07;;;15.67;;
55465;SDS011;41329;41.594;23.810;2024-02-23T05:01:36;16.50;;;15.20;;
55465;SDS011;41329;41.594;23.810;2024-02-23T05:04:02;16.90;;;15.60;;
55465;SDS011;41329;41.594;23.810;2024-02-23T05:06:28;27.87;;;23.17;;
55465;SDS011;41329;41.594;23.810;2024-02-23T05:08:54;32.97;;;29.40;;
55465;SDS011;41329;41.594;23.810;2024-02-23T05:11:19;44.23;;;31.23;;
55465;SDS011;41329;41.594;23.810;2024-02-23T05:13:45;49.63;;;31.00;;
55465;SDS011;41329;41.594;23.810;2024-02-23T05:16:10;53.93;;;34.33;;
55465;SDS011;41329;41.594;23.810;2024-02-23T05:18:38;44.87;;;32.13;;
55465;SDS011;41329;41.594;23.810;2024-02-23T05:21:03;52.57;;;33.13;;
55465;SDS011;41329;41.594;23.810;2024-02-23T05:23:30;49.23;;;32.87;;
55465;SDS011;41329;41.594;23.810;2024-02-23T05:25:55;56.93;;;35.30;;
55465;SDS011;41329;41.594;23.810;2024-02-23T05:28:20;74.67;;;41.60;;
55465;SDS011;41329;41.594;23.810;2024-02-23T05:30:46;92.13;;;36.90;;
55465;SDS011;41329;41.594;23.810;2024-02-23T05:33:11;44.70;;;29.83;;
55465;SDS011;41329;41.594;23.810;2024-02-23T05:35:37;44.53;;;29.17;;
55465;SDS011;41329;41.594;23.810;2024-02-23T05:38:02;50.40;;;33.20;;
55465;SDS011;41329;41.594;23.810;2024-02-23T05:40:27;48.63;;;31.63;;
55465;SDS011;41329;41.594;23.810;2024-02-23T05:42:53;57.97;;;35.57;;
55465;SDS011;41329;41.594;23.810;2024-02-23T05:45:19;73.70;;;43.60;;
55465;SDS011;41329;41.594;23.810;2024-02-23T05:47:45;60.40;;;41.43;;
55465;SDS011;41329;41.594;23.810;2024-02-23T05:50:10;62.40;;;39.83;;
55465;SDS011;41329;41.594;23.810;2024-02-23T05:52:36;58.30;;;37.97;;
55465;SDS011;41329;41.594;23.810;2024-02-23T05:55:02;62.93;;;38.10;;
55465;SDS011;41329;41.594;23.810;2024-02-23T05:57:29;59.37;;;37.43;;
55465;SDS011;41329;41.594;23.810;2024-02-23T05:59:54;52.00;;;36.57;;
55465;SDS011;41329;41.594;23.810;2024-02-23T06:02:20;55.40;;;34.17;;
55465;SDS011;41329;41.594;23.810;2024-02-23T06:04:46;59.43;;;37.33;;
55465;SDS011;41329;41.594;23.810;2024-02-23T06:07:12;55.57;;;36.17;;
55465;SDS011;41329;41.594;23.810;2024-02-23T06:09:40;66.87;;;41.27;;
55465;SDS011;41329;41.594;23.810;2024-02-23T06:12:06;63.13;;;39.10;;
55465;SDS011;41329;41.594;23.810;2024-02-23T06:14:32;51.93;;;35.90;;
55465;SDS011;41329;41.594;23.810;2024-02-23T06:16:57;71.60;;;44.13;;
55465;SDS011;41329;41.594;23.810;2024-02-23T06:19:23;87.03;;;52.47;;
55465;SDS011;41329;41.594;23.810;2024-02-23T06:21:48;99.60;;;57.77;;
55465;SDS011;41329;41.594;23.810;2024-02-23T06:24:15;104.13;;;58.47;;
55465;SDS011;41329;41.594;23.810;2024-02-23T06:26:40;70.43;;;43.93;;
55465;SDS011;41329;41.594;23.810;2024-02-23T06:29:06;204.83;;;100.17;;
55465;SDS011;41329;41.594;23.810;2024-02-23T06:31:33;247.27;;;119.47;;
55465;SDS011;41329;41.594;23.810;2024-02-23T06:33:59;187.00;;;94.80;;
55465;SDS011;41329;41.594;23.810;2024-02-23T06:36:25;123.80;;;65.53;;
55465;SDS011;41329;41.594;23.810;2024-02-23T06:38:50;140.03;;;73.63;;
55465;SDS011;41329;41.594;23.810;2024-02-23T06:41:16;87.70;;;50.03;;
55465;SDS011;41329;41.594;23.810;2024-02-23T06:43:41;80.87;;;47.17;;
55465;SDS011;41329;41.594;23.810;2024-02-23T06:46:07;58.23;;;41.27;;
55465;SDS011;41329;41.594;23.810;2024-02-23T06:48:33;49.40;;;36.60;;
55465;SDS011;41329;41.594;23.810;2024-02-23T06:50:59;52.77;;;37.20;;
55465;SDS011;41329;41.594;23.810;2024-02-23T06:53:25;56.67;;;43.07;;
55465;SDS011;41329;41.594;23.810;2024-02-23T06:55:50;49.43;;;34.13;;
55465;SDS011;41329;41.594;23.810;2024-02-23T06:58:16;38.37;;;30.57;;
55465;SDS011;41329;41.594;23.810;2024-02-23T07:00:41;44.17;;;33.57;;
55465;SDS011;41329;41.594;23.810;2024-02-23T07:03:07;45.33;;;33.97;;
55465;SDS011;41329;41.594;23.810;2024-02-23T07:05:32;43.20;;;32.10;;
55465;SDS011;41329;41.594;23.810;2024-02-23T07:08:00;45.10;;;33.20;;
55465;SDS011;41329;41.594;23.810;2024-02-23T07:10:26;34.97;;;29.57;;
55465;SDS011;41329;41.594;23.810;2024-02-23T07:12:51;37.27;;;29.87;;
55465;SDS011;41329;41.594;23.810;2024-02-23T07:15:21;42.33;;;30.27;;
55465;SDS011;41329;41.594;23.810;2024-02-23T07:17:46;29.60;;;25.10;;
55465;SDS011;41329;41.594;23.810;2024-02-23T07:20:12;32.17;;;26.37;;
55465;SDS011;41329;41.594;23.810;2024-02-23T07:22:38;40.80;;;32.70;;
55465;SDS011;41329;41.594;23.810;2024-02-23T07:25:04;35.60;;;28.67;;
55465;SDS011;41329;41.594;23.810;2024-02-23T07:27:30;46.23;;;31.43;;
55465;SDS011;41329;41.594;23.810;2024-02-23T07:29:56;34.53;;;28.53;;
55465;SDS011;41329;41.594;23.810;2024-02-23T07:32:22;34.27;;;28.43;;
55465;SDS011;41329;41.594;23.810;2024-02-23T07:34:47;36.53;;;30.73;;
55465;SDS011;41329;41.594;23.810;2024-02-23T07:37:13;33.27;;;26.33;;
55465;SDS011;41329;41.594;23.810;2024-02-23T07:39:38;36.90;;;28.53;;
55465;SDS011;41329;41.594;23.810;2024-02-23T07:42:04;40.20;;;28.73;;
55465;SDS011;41329;41.594;23.810;2024-02-23T07:44:31;50.57;;;37.07;;
55465;SDS011;41329;41.594;23.810;2024-02-23T07:46:56;50.07;;;35.33;;
55465;SDS011;41329;41.594;23.810;2024-02-23T07:49:24;46.43;;;31.37;;
55465;SDS011;41329;41.594;23.810;2024-02-23T07:51:49;41.40;;;31.77;;
55465;SDS011;41329;41.594;23.810;2024-02-23T07:54:15;41.83;;;32.17;;
55465;SDS011;41329;41.594;23.810;2024-02-23T07:56:40;49.57;;;32.47;;
55465;SDS011;41329;41.594;23.810;2024-02-23T07:59:05;47.90;;;34.00;;
55465;SDS011;41329;41.594;23.810;2024-02-23T08:01:31;42.47;;;31.60;;
55465;SDS011;41329;41.594;23.810;2024-02-23T08:03:57;47.03;;;28.50;;
55465;SDS011;41329;41.594;23.810;2024-02-23T08:06:22;37.70;;;26.93;;
55465;SDS011;41329;41.594;23.810;2024-02-23T08:08:48;27.80;;;24.53;;
55465;SDS011;41329;41.594;23.810;2024-02-23T08:11:13;30.33;;;22.73;;
55465;SDS011;41329;41.594;23.810;2024-02-23T08:13:39;29.67;;;23.50;;
55465;SDS011;41329;41.594;23.810;2024-02-23T08:16:05;31.93;;;24.80;;
55465;SDS011;41329;41.594;23.810;2024-02-23T08:18:31;25.57;;;22.80;;
55465;SDS011;41329;41.594;23.810;2024-02-23T08:20:57;25.90;;;23.03;;
55465;SDS011;41329;41.594;23.810;2024-02-23T08:23:23;23.60;;;21.30;;
55465;SDS011;41329;41.594;23.810;2024-02-23T08:25:49;24.23;;;21.80;;
55465;SDS011;41329;41.594;23.810;2024-02-23T08:28:15;23.10;;;20.90;;
55465;SDS011;41329;41.594;23.810;2024-02-23T08:30:41;28.07;;;22.63;;
55465;SDS011;41329;41.594;23.810;2024-02-23T08:33:06;34.13;;;25.30;;
55465;SDS011;41329;41.594;23.810;2024-02-23T08:35:34;30.80;;;25.10;;
55465;SDS011;41329;41.594;23.810;2024-02-23T08:38:00;27.43;;;24.50;;
55465;SDS011;41329;41.594;23.810;2024-02-23T08:40:26;26.20;;;23.17;;
55465;SDS011;41329;41.594;23.810;2024-02-23T08:42:51;27.60;;;24.90;;
55465;SDS011;41329;41.594;23.810;2024-02-23T08:45:17;48.07;;;30.67;;
55465;SDS011;41329;41.594;23.810;2024-02-23T08:47:43;29.63;;;26.23;;
55465;SDS011;41329;41.594;23.810;2024-02-23T08:50:08;26.03;;;22.70;;
55465;SDS011;41329;41.594;23.810;2024-02-23T08:52:34;30.97;;;26.37;;
55465;SDS011;41329;41.594;23.810;2024-02-23T08:54:59;36.37;;;27.20;;
55465;SDS011;41329;41.594;23.810;2024-02-23T08:57:28;42.20;;;26.30;;
55465;SDS011;41329;41.594;23.810;2024-02-23T08:59:54;25.97;;;23.13;;
55465;SDS011;41329;41.594;23.810;2024-02-23T09:02:22;28.57;;;23.23;;
55465;SDS011;41329;41.594;23.810;2024-02-23T09:04:48;27.73;;;23.07;;
55465;SDS011;41329;41.594;23.810;2024-02-23T09:07:13;21.03;;;19.27;;
55465;SDS011;41329;41.594;23.810;2024-02-23T09:09:39;24.07;;;22.00;;
55465;SDS011;41329;41.594;23.810;2024-02-23T09:12:05;25.07;;;22.27;;
55465;SDS011;41329;41.594;23.810;2024-02-23T09:14:32;24.67;;;22.33;;
55465;SDS011;41329;41.594;23.810;2024-02-23T09:17:00;27.60;;;24.40;;
55465;SDS011;41329;41.594;23.810;2024-02-23T09:19:25;27.63;;;24.73;;
55465;SDS011;41329;41.594;23.810;2024-02-23T09:21:51;23.03;;;21.07;;
55465;SDS011;41329;41.594;23.810;2024-02-23T09:24:16;23.50;;;21.27;;
55465;SDS011;41329;41.594;23.810;2024-02-23T09:26:41;25.37;;;23.00;;
55465;SDS011;41329;41.594;23.810;2024-02-23T09:29:07;24.43;;;22.10;;
55465;SDS011;41329;41.594;23.810;2024-02-23T09:31:32;33.33;;;28.63;;
55465;SDS011;41329;41.594;23.810;2024-02-23T09:33:58;26.40;;;23.77;;
55465;SDS011;41329;41.594;23.810;2024-02-23T09:36:24;25.90;;;22.53;;
55465;SDS011;41329;41.594;23.810;2024-02-23T09:38:49;27.40;;;24.67;;
55465;SDS011;41329;41.594;23.810;2024-02-23T09:41:19;28.77;;;24.13;;
55465;SDS011;41329;41.594;23.810;2024-02-23T09:43:46;26.60;;;23.98;;
55465;SDS011;41329;41.594;23.810;2024-02-23T09:46:13;20.07;;;18.33;;
55465;SDS011;41329;41.594;23.810;2024-02-23T09:48:40;19.90;;;18.23;;
55465;SDS011;41329;41.594;23.810;2024-02-23T09:51:07;23.10;;;20.90;;
55465;SDS011;41329;41.594;23.810;2024-02-23T09:53:34;21.50;;;19.47;;
55465;SDS011;41329;41.594;23.810;2024-02-23T09:56:02;23.30;;;21.23;;
55465;SDS011;41329;41.594;23.810;2024-02-23T09:58:29;22.47;;;20.37;;
55465;SDS011;41329;41.594;23.810;2024-02-23T10:00:57;51.03;;;40.07;;
55465;SDS011;41329;41.594;23.810;2024-02-23T10:03:24;22.43;;;20.53;;
55465;SDS011;41329;41.594;23.810;2024-02-23T10:05:53;35.10;;;24.90;;
55465;SDS011;41329;41.594;23.810;2024-02-23T10:08:19;17.37;;;16.17;;
55465;SDS011;41329;41.594;23.810;2024-02-23T10:10:47;14.93;;;13.93;;
55465;SDS011;41329;41.594;23.810;2024-02-23T10:15:45;14.50;;;13.63;;
55465;SDS011;41329;41.594;23.810;2024-02-23T10:18:12;14.93;;;13.83;;
55465;SDS011;41329;41.594;23.810;2024-02-23T10:20:37;15.00;;;14.00;;
55465;SDS011;41329;41.594;23.810;2024-02-23T10:23:03;13.50;;;12.70;;
55465;SDS011;41329;41.594;23.810;2024-02-23T10:25:29;15.45;;;14.45;;
55465;SDS011;41329;41.594;23.810;2024-02-23T10:27:55;13.25;;;12.25;;
55465;SDS011;41329;41.594;23.810;2024-02-23T10:30:20;13.45;;;12.55;;
55465;SDS011;41329;41.594;23.810;2024-02-23T10:32:46;13.40;;;12.38;;
55465;SDS011;41329;41.594;23.810;2024-02-23T10:35:14;9.90;;;9.20;;
55465;SDS011;41329;41.594;23.810;2024-02-23T10:37:44;7.57;;;7.03;;
55465;SDS011;41329;41.594;23.810;2024-02-23T10:40:15;6.00;;;5.65;;
55465;SDS011;41329;41.594;23.810;2024-02-23T10:42:43;7.47;;;5.30;;
55465;SDS011;41329;41.594;23.810;2024-02-23T10:45:12;6.30;;;5.90;;
55465;SDS011;41329;41.594;23.810;2024-02-23T10:47:40;7.57;;;7.15;;
55465;SDS011;41329;41.594;23.810;2024-02-23T10:50:07;11.88;;;10.93;;
55465;SDS011;41329;41.594;23.810;2024-02-23T10:52:33;6.18;;;5.70;;
55465;SDS011;41329;41.594;23.810;2024-02-23T10:55:00;6.38;;;5.88;;
55465;SDS011;41329;41.594;23.810;2024-02-23T10:57:29;7.90;;;7.40;;
55465;SDS011;41329;41.594;23.810;2024-02-23T10:59:57;6.25;;;5.85;;
55465;SDS011;41329;41.594;23.810;2024-02-23T11:02:23;5.53;;;5.15;;
55465;SDS011;41329;41.594;23.810;2024-02-23T11:04:53;4.65;;;4.35;;
55465;SDS011;41329;41.594;23.810;2024-02-23T11:07:21;4.78;;;4.47;;
55465;SDS011;41329;41.594;23.810;2024-02-23T11:09:59;4.70;;;4.40;;
55465;SDS011;41329;41.594;23.810;2024-02-23T11:12:25;3.80;;;3.50;;
55465;SDS011;41329;41.594;23.810;2024-02-23T11:14:57;3.50;;;3.20;;
55465;SDS011;41329;41.594;23.810;2024-02-23T11:17:25;4.03;;;3.83;;
55465;SDS011;41329;41.594;23.810;2024-02-23T11:19:51;3.72;;;3.53;;
55465;SDS011;41329;41.594;23.810;2024-02-23T11:24:59;4.50;;;4.20;;
55465;SDS011;41329;41.594;23.810;2024-02-23T11:27:29;3.47;;;3.28;;
55465;SDS011;41329;41.594;23.810;2024-02-23T11:30:02;3.58;;;3.38;;
55465;SDS011;41329;41.594;23.810;2024-02-23T11:32:46;4.25;;;3.97;;
55465;SDS011;41329;41.594;23.810;2024-02-23T11:35:16;4.05;;;3.78;;
55465;SDS011;41329;41.594;23.810;2024-02-23T11:38:02;3.97;;;3.67;;
55465;SDS011;41329;41.594;23.810;2024-02-23T11:40:30;3.85;;;3.55;;
55465;SDS011;41329;41.594;23.810;2024-02-23T11:42:56;3.65;;;3.45;;
55465;SDS011;41329;41.594;23.810;2024-02-23T11:45:27;2.33;;;2.13;;
55465;SDS011;41329;41.594;23.810;2024-02-23T11:47:53;2.03;;;1.90;;
55465;SDS011;41329;41.594;23.810;2024-02-23T11:50:19;2.63;;;2.42;;
55465;SDS011;41329;41.594;23.810;2024-02-23T11:52:45;2.75;;;2.65;;
55465;SDS011;41329;41.594;23.810;2024-02-23T11:55:11;2.40;;;2.20;;
55465;SDS011;41329;41.594;23.810;2024-02-23T11:57:37;7.65;;;7.20;;
55465;SDS011;41329;41.594;23.810;2024-02-23T12:00:04;2.95;;;2.53;;
55465;SDS011;41329;41.594;23.810;2024-02-23T12:02:32;2.35;;;2.15;;
55465;SDS011;41329;41.594;23.810;2024-02-23T12:04:58;2.85;;;2.65;;
55465;SDS011;41329;41.594;23.810;2024-02-23T12:07:23;1.55;;;1.42;;
55465;SDS011;41329;41.594;23.810;2024-02-23T12:09:51;3.00;;;2.80;;
55465;SDS011;41329;41.594;23.810;2024-02-23T12:12:17;2.90;;;2.70;;
55465;SDS011;41329;41.594;23.810;2024-02-23T12:14:43;4.00;;;3.60;;
55465;SDS011;41329;41.594;23.810;2024-02-23T12:17:09;8.80;;;8.20;;
55465;SDS011;41329;41.594;23.810;2024-02-23T12:19:38;5.97;;;5.43;;
55465;SDS011;41329;41.594;23.810;2024-02-23T12:22:07;2.20;;;1.95;;
55465;SDS011;41329;41.594;23.810;2024-02-23T12:24:32;1.95;;;1.85;;
55465;SDS011;41329;41.594;23.810;2024-02-23T12:26:59;2.00;;;1.90;;
55465;SDS011;41329;41.594;23.810;2024-02-23T12:29:24;5.38;;;4.93;;
55465;SDS011;41329;41.594;23.810;2024-02-23T12:31:50;2.65;;;2.35;;
55465;SDS011;41329;41.594;23.810;2024-02-23T12:34:16;3.35;;;3.15;;
55465;SDS011;41329;41.594;23.810;2024-02-23T12:36:42;2.40;;;1.88;;
55465;SDS011;41329;41.594;23.810;2024-02-23T12:39:07;2.60;;;2.40;;
55465;SDS011;41329;41.594;23.810;2024-02-23T12:41:33;2.45;;;2.35;;
55465;SDS011;41329;41.594;23.810;2024-02-23T12:43:59;1.88;;;1.77;;
55465;SDS011;41329;41.594;23.810;2024-02-23T12:46:24;4.05;;;3.85;;
55465;SDS011;41329;41.594;23.810;2024-02-23T12:48:50;4.35;;;4.15;;
55465;SDS011;41329;41.594;23.810;2024-02-23T12:51:15;5.28;;;4.88;;
55465;SDS011;41329;41.594;23.810;2024-02-23T12:53:42;2.38;;;2.17;;
55465;SDS011;41329;41.594;23.810;2024-02-23T12:56:11;2.08;;;1.98;;
55465;SDS011;41329;41.594;23.810;2024-02-23T13:01:04;2.00;;;1.90;;
55465;SDS011;41329;41.594;23.810;2024-02-23T13:03:31;4.90;;;2.58;;
55465;SDS011;41329;41.594;23.810;2024-02-23T13:05:57;2.00;;;1.90;;
55465;SDS011;41329;41.594;23.810;2024-02-23T13:08:23;2.30;;;2.20;;
55465;SDS011;41329;41.594;23.810;2024-02-23T13:10:49;2.05;;;1.95;;
55465;SDS011;41329;41.594;23.810;2024-02-23T13:13:15;2.45;;;2.25;;
55465;SDS011;41329;41.594;23.810;2024-02-23T13:15:42;2.80;;;2.63;;
55465;SDS011;41329;41.594;23.810;2024-02-23T13:18:07;1.95;;;1.85;;
55465;SDS011;41329;41.594;23.810;2024-02-23T13:20:34;19.35;;;15.90;;
55465;SDS011;41329;41.594;23.810;2024-02-23T13:22:59;2.30;;;2.10;;
55465;SDS011;41329;41.594;23.810;2024-02-23T13:25:25;2.35;;;1.92;;
55465;SDS011;41329;41.594;23.810;2024-02-23T13:27:50;2.38;;;2.28;;
55465;SDS011;41329;41.594;23.810;2024-02-23T13:30:16;2.40;;;2.30;;
55465;SDS011;41329;41.594;23.810;2024-02-23T13:32:41;2.97;;;2.05;;
55465;SDS011;41329;41.594;23.810;2024-02-23T13:35:08;2.67;;;2.47;;
55465;SDS011;41329;41.594;23.810;2024-02-23T13:37:33;3.08;;;2.88;;
55465;SDS011;41329;41.594;23.810;2024-02-23T13:39:59;2.13;;;2.03;;
55465;SDS011;41329;41.594;23.810;2024-02-23T13:42:25;3.88;;;3.67;;
55465;SDS011;41329;41.594;23.810;2024-02-23T13:44:50;2.10;;;2.00;;
55465;SDS011;41329;41.594;23.810;2024-02-23T13:47:15;2.95;;;2.75;;
55465;SDS011;41329;41.594;23.810;2024-02-23T13:49:41;2.50;;;2.40;;
55465;SDS011;41329;41.594;23.810;2024-02-23T13:52:06;1.92;;;1.80;;
55465;SDS011;41329;41.594;23.810;2024-02-23T13:54:32;3.97;;;3.70;;
55465;SDS011;41329;41.594;23.810;2024-02-23T13:56:57;2.83;;;2.72;;
55465;SDS011;41329;41.594;23.810;2024-02-23T13:59:23;2.70;;;2.60;;
55465;SDS011;41329;41.594;23.810;2024-02-23T14:01:48;2.85;;;2.45;;
55465;SDS011;41329;41.594;23.810;2024-02-23T14:04:14;3.40;;;3.20;;
55465;SDS011;41329;41.594;23.810;2024-02-23T14:06:39;2.42;;;1.98;;
55465;SDS011;41329;41.594;23.810;2024-02-23T14:09:04;2.30;;;2.10;;
55465;SDS011;41329;41.594;23.810;2024-02-23T14:11:30;2.38;;;2.20;;
55465;SDS011;41329;41.594;23.810;2024-02-23T14:13:56;2.53;;;2.38;;
55465;SDS011;41329;41.594;23.810;2024-02-23T14:16:22;2.40;;;2.20;;
55465;SDS011;41329;41.594;23.810;2024-02-23T14:18:48;2.50;;;2.40;;